createdAt,value
2019-01-14T00:01:19.377Z,96.40
2019-01-14T00:03:23.110Z,95.30
2019-01-14T00:05:26.758Z,95.40
2019-01-14T00:07:30.516Z,95.30
2019-01-14T00:09:34.197Z,95.60
2019-01-14T00:11:37.895Z,96.20
2019-01-14T00:13:41.656Z,97.00
2019-01-14T00:15:45.308Z,96.60
2019-01-14T00:17:48.960Z,96.70
2019-01-14T00:19:52.655Z,96.50
2019-01-14T00:21:56.307Z,96.20
2019-01-14T00:24:00.036Z,96.50
2019-01-14T00:26:03.787Z,96.20
2019-01-14T00:28:07.491Z,96.30
2019-01-14T00:30:13.970Z,96.40
2019-01-14T00:32:17.624Z,95.90
2019-01-14T00:34:21.611Z,96.60
2019-01-14T00:36:25.775Z,96.20
2019-01-14T00:38:29.444Z,95.90
2019-01-14T00:40:33.264Z,96.00
2019-01-14T00:42:37.015Z,96.60
2019-01-14T00:44:40.683Z,96.50
2019-01-14T00:46:44.338Z,97.70
2019-01-14T00:48:48.099Z,97.20
2019-01-14T00:50:51.803Z,96.40
2019-01-14T00:52:55.557Z,96.60
2019-01-14T00:54:59.370Z,97.00
2019-01-14T00:57:03.039Z,96.60
2019-01-14T00:59:06.682Z,97.30
2019-01-14T01:01:10.368Z,98.00
2019-01-14T01:03:14.023Z,97.00
2019-01-14T01:05:17.712Z,96.50
2019-01-14T01:07:21.361Z,96.10
2019-01-14T01:09:25.038Z,97.00
2019-01-14T01:11:28.975Z,96.80
2019-01-14T01:13:32.630Z,96.20
2019-01-14T01:15:36.303Z,96.10
2019-01-14T01:17:39.991Z,95.70
2019-01-14T01:19:43.673Z,96.20
2019-01-14T01:21:47.375Z,96.70
2019-01-14T01:23:51.066Z,96.60
2019-01-14T01:25:54.721Z,97.20
2019-01-14T01:27:58.440Z,96.60
2019-01-14T01:30:02.099Z,96.50
2019-01-14T01:32:05.915Z,95.60
2019-01-14T01:34:09.577Z,94.80
2019-01-14T01:36:13.271Z,95.60
2019-01-14T01:38:16.922Z,96.80
2019-01-14T01:40:20.577Z,96.20
2019-01-14T01:42:24.268Z,96.30
2019-01-14T01:44:27.909Z,97.00
2019-01-14T01:46:31.590Z,96.50
2019-01-14T01:48:35.268Z,95.70
2019-01-14T01:50:39.025Z,95.80
2019-01-14T01:52:42.706Z,94.70
2019-01-14T01:54:46.358Z,94.20
2019-01-14T01:56:50.018Z,94.90
2019-01-14T01:58:53.794Z,94.80
2019-01-14T02:00:57.443Z,94.80
2019-01-14T02:03:01.090Z,95.50
2019-01-14T02:05:07.109Z,95.70
2019-01-14T02:07:10.758Z,95.20
2019-01-14T02:09:14.434Z,95.10
2019-01-14T02:11:18.102Z,95.40
2019-01-14T02:13:21.765Z,95.20
2019-01-14T02:15:25.451Z,94.70
2019-01-14T02:17:29.116Z,94.90
2019-01-14T02:19:32.798Z,95.40
2019-01-14T02:21:36.454Z,95.00
2019-01-14T02:23:40.284Z,95.20
2019-01-14T02:25:43.966Z,94.30
2019-01-14T02:27:47.615Z,94.00
2019-01-14T02:29:51.330Z,94.10
2019-01-14T02:31:55.028Z,93.40
2019-01-14T02:33:58.682Z,93.50
2019-01-14T02:36:02.675Z,94.10
2019-01-14T02:38:06.334Z,93.30
2019-01-14T02:40:13.188Z,93.40
2019-01-14T02:42:16.848Z,93.50
2019-01-14T02:44:20.569Z,93.70
2019-01-14T02:46:24.256Z,93.80
2019-01-14T02:48:27.909Z,93.70
2019-01-14T02:50:31.563Z,93.90
2019-01-14T02:52:39.748Z,93.90
2019-01-14T02:54:42.303Z,93.70
2019-01-14T02:56:45.979Z,93.30
2019-01-14T02:58:49.639Z,93.40
2019-01-14T03:00:53.317Z,93.80
2019-01-14T03:02:56.974Z,94.40
2019-01-14T03:05:00.638Z,94.10
2019-01-14T03:07:04.517Z,94.00
2019-01-14T03:09:08.671Z,94.40
2019-01-14T03:11:12.478Z,94.10
2019-01-14T03:13:16.125Z,93.70
2019-01-14T03:15:19.775Z,93.40
2019-01-14T03:17:23.442Z,92.60
2019-01-14T03:19:27.090Z,92.70
2019-01-14T03:21:30.775Z,92.50
2019-01-14T03:23:34.435Z,92.50
2019-01-14T03:25:38.093Z,92.80
2019-01-14T03:27:41.776Z,93.30
2019-01-14T03:29:45.435Z,93.30
2019-01-14T03:31:49.205Z,93.30
2019-01-14T03:33:53.459Z,93.20
2019-01-14T03:35:57.218Z,93.60
2019-01-14T03:38:00.908Z,93.50
2019-01-14T03:40:10.270Z,93.80
2019-01-14T03:42:13.986Z,94.10
2019-01-14T03:44:17.637Z,93.80
2019-01-14T03:46:21.313Z,93.60
2019-01-14T03:48:25.007Z,93.90
2019-01-14T03:50:28.677Z,93.70
2019-01-14T03:52:32.329Z,93.70
2019-01-14T03:54:36.049Z,93.60
2019-01-14T03:56:39.704Z,92.80
2019-01-14T03:58:43.395Z,93.80
2019-01-14T04:00:47.053Z,93.30
2019-01-14T04:02:50.727Z,93.50
2019-01-14T04:04:54.379Z,93.60
2019-01-14T04:06:58.077Z,93.20
2019-01-14T04:09:01.762Z,92.10
2019-01-14T04:11:05.413Z,91.00
2019-01-14T04:13:09.074Z,91.70
2019-01-14T04:15:17.698Z,91.80
2019-01-14T04:17:21.346Z,91.60
2019-01-14T04:19:25.033Z,92.20
2019-01-14T04:21:28.682Z,93.00
2019-01-14T04:23:32.337Z,93.70
2019-01-14T04:25:36.023Z,93.80
2019-01-14T04:27:39.670Z,93.90
2019-01-14T04:29:43.366Z,93.90
2019-01-14T04:31:47.119Z,93.90
2019-01-14T04:33:50.779Z,94.10
2019-01-14T04:35:54.632Z,95.20
2019-01-14T04:37:58.284Z,94.80
2019-01-14T04:40:01.964Z,94.20
2019-01-14T04:42:05.615Z,94.20
2019-01-14T04:44:09.285Z,94.20
2019-01-14T04:46:12.969Z,94.10
2019-01-14T04:48:16.618Z,93.90
2019-01-14T04:50:21.394Z,93.60
2019-01-14T04:52:25.075Z,94.10
2019-01-14T04:54:28.739Z,94.20
2019-01-14T04:56:32.416Z,93.60
2019-01-14T04:58:36.070Z,92.90
2019-01-14T05:00:39.754Z,92.70
2019-01-14T05:02:43.414Z,92.90
2019-01-14T05:04:47.072Z,92.20
2019-01-14T05:06:50.747Z,92.10
2019-01-14T05:08:54.406Z,92.80
2019-01-14T05:10:58.062Z,93.60
2019-01-14T05:13:01.751Z,92.70
2019-01-14T05:15:08.009Z,93.00
2019-01-14T05:17:11.782Z,92.40
2019-01-14T05:19:15.441Z,91.90
2019-01-14T05:21:19.146Z,91.70
2019-01-14T05:23:22.811Z,91.50
2019-01-14T05:25:26.574Z,91.60
2019-01-14T05:27:30.245Z,91.60
2019-01-14T05:29:33.914Z,92.70
2019-01-14T05:31:37.766Z,92.10
2019-01-14T05:33:41.424Z,92.30
2019-01-14T05:35:45.083Z,91.60
2019-01-14T05:37:48.766Z,91.70
2019-01-14T05:39:52.439Z,92.30
2019-01-14T05:41:56.102Z,92.10
2019-01-14T05:43:59.784Z,92.00
2019-01-14T05:46:03.454Z,91.70
2019-01-14T05:48:07.136Z,92.60
2019-01-14T05:50:13.890Z,92.60
2019-01-14T05:52:17.593Z,92.00
2019-01-14T05:54:21.310Z,91.10
2019-01-14T05:56:24.975Z,91.20
2019-01-14T05:58:28.666Z,91.20
2019-01-14T06:00:34.597Z,90.90
2019-01-14T06:02:38.249Z,91.40
2019-01-14T06:04:42.047Z,92.10
2019-01-14T06:06:45.714Z,92.80
2019-01-14T06:08:49.394Z,92.70
2019-01-14T06:10:53.057Z,92.60
2019-01-14T06:12:56.708Z,92.60
2019-01-14T06:15:00.421Z,92.50
2019-01-14T06:17:04.371Z,92.20
2019-01-14T06:19:08.376Z,91.70
2019-01-14T06:21:12.024Z,91.80
2019-01-14T06:23:15.682Z,91.80
2019-01-14T06:25:19.769Z,91.80
2019-01-14T06:27:23.442Z,91.60
2019-01-14T06:29:27.125Z,91.90
2019-01-14T06:31:30.779Z,92.40
2019-01-14T06:33:34.442Z,91.90
2019-01-14T06:35:38.123Z,91.40
2019-01-14T06:37:41.788Z,92.20
2019-01-14T06:39:45.446Z,92.60
2019-01-14T06:41:49.097Z,92.70
2019-01-14T06:43:52.765Z,91.90
2019-01-14T06:45:56.441Z,92.20
2019-01-14T06:48:00.103Z,92.00
2019-01-14T06:50:06.981Z,92.10
2019-01-14T06:52:10.630Z,91.70
2019-01-14T06:54:14.308Z,92.20
2019-01-14T06:56:17.987Z,91.90
2019-01-14T06:58:21.705Z,91.90
2019-01-14T07:00:26.500Z,92.60
2019-01-14T07:02:30.164Z,92.10
2019-01-14T07:04:33.823Z,92.50
2019-01-14T07:06:37.506Z,91.40
2019-01-14T07:08:41.157Z,91.40
2019-01-14T07:10:44.842Z,91.30
2019-01-14T07:12:48.501Z,91.50
2019-01-14T07:14:52.151Z,91.60
2019-01-14T07:16:55.878Z,91.00
2019-01-14T07:18:59.624Z,90.80
2019-01-14T07:21:03.406Z,90.40
2019-01-14T07:23:08.265Z,90.20
2019-01-14T07:25:12.381Z,89.60
2019-01-14T07:27:16.110Z,89.40
2019-01-14T07:29:19.870Z,89.60
2019-01-14T07:31:23.555Z,88.00
2019-01-14T07:33:27.231Z,88.20
2019-01-14T07:35:30.881Z,89.00
2019-01-14T07:37:34.633Z,88.70
2019-01-14T07:39:38.323Z,89.70
2019-01-14T07:41:42.001Z,90.40
2019-01-14T07:43:45.679Z,91.00
2019-01-14T07:45:49.342Z,90.70
2019-01-14T07:47:53.184Z,90.50
2019-01-14T07:49:56.860Z,90.40
2019-01-14T07:52:00.543Z,90.50
2019-01-14T07:54:04.216Z,91.10
2019-01-14T07:56:07.990Z,90.90
2019-01-14T07:58:11.672Z,91.30
2019-01-14T08:00:20.516Z,91.60
2019-01-14T08:02:24.199Z,91.10
2019-01-14T08:04:27.864Z,90.70
2019-01-14T08:06:31.543Z,91.60
2019-01-14T08:08:35.225Z,91.60
2019-01-14T08:10:38.983Z,91.50
2019-01-14T08:12:42.635Z,90.50
2019-01-14T08:14:46.319Z,90.10
2019-01-14T08:16:49.982Z,90.90
2019-01-14T08:18:53.739Z,90.80
2019-01-14T08:20:57.398Z,92.20
2019-01-14T08:23:01.084Z,91.40
2019-01-14T08:25:06.062Z,91.60
2019-01-14T08:27:09.715Z,91.20
2019-01-14T08:29:13.395Z,91.20
2019-01-14T08:31:17.051Z,91.00
2019-01-14T08:33:20.728Z,90.50
2019-01-14T08:35:24.379Z,90.80
2019-01-14T08:37:28.034Z,91.30
2019-01-14T08:39:31.821Z,90.80
2019-01-14T08:41:35.888Z,90.40
2019-01-14T08:43:39.851Z,91.10
2019-01-14T08:45:43.591Z,90.60
2019-01-14T08:47:47.254Z,90.90
2019-01-14T08:49:50.939Z,90.90
2019-01-14T08:51:54.591Z,90.70
2019-01-14T08:53:58.291Z,90.40
2019-01-14T08:56:02.083Z,89.20
2019-01-14T08:58:05.750Z,90.40
2019-01-14T09:00:17.050Z,90.50
2019-01-14T09:02:20.843Z,90.10
2019-01-14T09:04:24.571Z,90.60
2019-01-14T09:06:28.242Z,90.90
2019-01-14T09:08:31.906Z,90.80
2019-01-14T09:10:35.607Z,90.80
2019-01-14T09:12:39.299Z,91.20
2019-01-14T09:14:42.995Z,90.80
2019-01-14T09:16:46.649Z,91.30
2019-01-14T09:18:50.308Z,91.90
2019-01-14T09:20:54.115Z,91.80
2019-01-14T09:22:57.786Z,90.80
2019-01-14T09:25:01.452Z,90.10
2019-01-14T09:27:05.356Z,90.30
2019-01-14T09:29:09.001Z,91.00
2019-01-14T09:31:12.660Z,91.80
2019-01-14T09:33:16.350Z,91.30
2019-01-14T09:35:20.107Z,91.70
2019-01-14T09:37:23.781Z,91.30
2019-01-14T09:39:27.450Z,90.40
2019-01-14T09:41:31.127Z,90.50
2019-01-14T09:43:34.791Z,89.00
2019-01-14T09:45:38.444Z,89.50
2019-01-14T09:47:42.333Z,91.20
2019-01-14T09:49:45.988Z,91.40
2019-01-14T09:51:49.683Z,91.40
2019-01-14T09:53:53.349Z,91.80
2019-01-14T09:55:56.992Z,91.50
2019-01-14T09:58:00.688Z,92.30
2019-01-14T10:00:07.275Z,91.50
2019-01-14T10:02:10.958Z,91.50
2019-01-14T10:04:14.618Z,91.90
2019-01-14T10:06:18.304Z,92.40
2019-01-14T10:08:21.966Z,92.90
2019-01-14T10:10:25.622Z,92.70
2019-01-14T10:12:29.352Z,91.60
2019-01-14T10:14:33.128Z,91.50
2019-01-14T10:16:37.082Z,91.70
2019-01-14T10:18:40.787Z,91.20
2019-01-14T10:20:45.281Z,90.40
2019-01-14T10:22:49.009Z,92.20
2019-01-14T10:24:52.693Z,92.00
2019-01-14T10:26:56.362Z,91.90
2019-01-14T10:29:00.135Z,92.50
2019-01-14T10:31:03.841Z,93.30
2019-01-14T10:33:07.521Z,92.80
2019-01-14T10:35:11.180Z,92.90
2019-01-14T10:37:14.940Z,93.30
2019-01-14T10:39:18.634Z,93.50
2019-01-14T10:41:22.281Z,94.00
2019-01-14T10:43:25.979Z,92.90
2019-01-14T10:45:29.670Z,92.60
2019-01-14T10:47:33.422Z,93.30
2019-01-14T10:49:37.149Z,93.30
2019-01-14T10:51:40.819Z,93.50
2019-01-14T10:53:44.473Z,93.90
2019-01-14T10:55:48.173Z,94.00
2019-01-14T10:57:51.839Z,93.80
2019-01-14T10:59:55.541Z,93.40
2019-01-14T11:01:59.181Z,93.50
2019-01-14T11:04:03.035Z,93.20
2019-01-14T11:06:06.683Z,92.80
2019-01-14T11:08:10.346Z,93.00
2019-01-14T11:10:14.015Z,92.60
2019-01-14T11:12:17.656Z,92.90
2019-01-14T11:14:21.311Z,92.90
2019-01-14T11:16:25.036Z,93.00
2019-01-14T11:18:28.679Z,93.10
2019-01-14T11:20:32.352Z,91.90
2019-01-14T11:22:35.999Z,92.30
2019-01-14T11:24:51.493Z,92.20
2019-01-14T11:26:55.187Z,92.50
2019-01-14T11:28:58.974Z,92.60
2019-01-14T11:31:06.592Z,92.60
2019-01-14T11:33:10.252Z,92.70
2019-01-14T11:35:13.947Z,92.70
2019-01-14T11:37:17.633Z,92.30
2019-01-14T11:39:21.281Z,92.50
2019-01-14T11:41:24.989Z,92.80
2019-01-14T11:43:28.654Z,92.10
2019-01-14T11:45:32.347Z,91.40
2019-01-14T11:47:36.006Z,91.90
2019-01-14T11:49:39.666Z,91.20
2019-01-14T11:51:43.346Z,91.40
2019-01-14T11:53:47.112Z,92.50
2019-01-14T11:55:50.816Z,91.90
2019-01-14T11:57:54.450Z,92.20
2019-01-14T11:59:58.115Z,91.90
2019-01-14T12:02:01.821Z,91.80
2019-01-14T12:04:05.570Z,91.60
2019-01-14T12:06:09.260Z,91.30
2019-01-14T12:08:12.926Z,91.30
2019-01-14T12:10:16.581Z,91.50
2019-01-14T12:12:20.265Z,91.70
2019-01-14T12:14:24.036Z,91.80
2019-01-14T12:16:27.723Z,91.70
2019-01-14T12:18:31.369Z,91.10
2019-01-14T12:20:35.029Z,91.60
2019-01-14T12:22:38.731Z,91.40
2019-01-14T12:24:42.406Z,91.70
2019-01-14T12:26:46.063Z,91.40
2019-01-14T12:28:49.745Z,91.30
2019-01-14T12:30:53.402Z,91.10
2019-01-14T12:32:57.086Z,91.60
2019-01-14T12:35:00.779Z,91.50
2019-01-14T12:37:04.438Z,91.30
2019-01-14T12:39:08.730Z,91.30
2019-01-14T12:41:12.393Z,91.50
2019-01-14T12:43:16.071Z,90.80
2019-01-14T12:45:20.332Z,90.10
2019-01-14T12:47:23.987Z,90.20
2019-01-14T12:49:27.670Z,90.50
2019-01-14T12:51:31.334Z,90.40
2019-01-14T12:53:35.060Z,91.00
2019-01-14T12:55:38.733Z,91.30
2019-01-14T12:57:42.396Z,91.70
2019-01-14T12:59:46.183Z,92.40
2019-01-14T13:01:49.866Z,92.20
2019-01-14T13:03:53.646Z,92.60
2019-01-14T13:05:57.312Z,92.10
2019-01-14T13:08:00.962Z,92.80
2019-01-14T13:10:07.654Z,93.20
2019-01-14T13:12:11.454Z,92.80
2019-01-14T13:14:15.337Z,93.00
2019-01-14T13:16:18.989Z,93.10
2019-01-14T13:18:22.663Z,93.20
2019-01-14T13:20:26.419Z,92.90
2019-01-14T13:22:30.167Z,92.70
2019-01-14T13:24:33.859Z,92.00
2019-01-14T13:26:37.557Z,92.60
2019-01-14T13:28:41.215Z,92.40
2019-01-14T13:30:44.920Z,93.70
2019-01-14T13:32:48.580Z,94.10
2019-01-14T13:34:52.260Z,95.10
2019-01-14T13:36:56.067Z,95.80
2019-01-14T13:38:59.763Z,96.60
2019-01-14T13:41:03.451Z,97.20
2019-01-14T13:43:07.113Z,97.10
2019-01-14T13:45:16.460Z,97.60
2019-01-14T13:47:20.134Z,96.20
2019-01-14T13:49:23.875Z,95.00
2019-01-14T13:51:27.560Z,94.30
2019-01-14T13:53:31.215Z,95.10
2019-01-14T13:55:34.928Z,95.60
2019-01-14T13:57:38.675Z,95.40
2019-01-14T13:59:42.335Z,95.30
2019-01-14T14:01:46.024Z,94.30
2019-01-14T14:03:49.793Z,94.60
2019-01-14T14:05:53.475Z,93.50
2019-01-14T14:07:57.171Z,94.20
2019-01-14T14:10:00.824Z,93.90
2019-01-14T14:12:04.495Z,93.70
2019-01-14T14:14:08.159Z,93.20
2019-01-14T14:16:11.916Z,93.10
2019-01-14T14:18:15.582Z,93.10
2019-01-14T14:20:19.555Z,93.00
2019-01-14T14:22:23.372Z,92.80
2019-01-14T14:24:27.029Z,93.00
2019-01-14T14:26:30.714Z,93.60
2019-01-14T14:28:34.402Z,92.50
2019-01-14T14:30:38.280Z,91.80
2019-01-14T14:32:42.042Z,91.60
2019-01-14T14:34:45.703Z,91.40
2019-01-14T14:36:49.370Z,91.30
2019-01-14T14:38:53.030Z,91.40
2019-01-14T14:40:56.662Z,91.30
2019-01-14T14:43:00.343Z,92.00
2019-01-14T14:45:05.201Z,91.90
2019-01-14T14:47:09.413Z,92.30
2019-01-14T14:49:13.350Z,91.90
2019-01-14T14:51:17.003Z,91.00
2019-01-14T14:53:20.746Z,91.40
2019-01-14T14:55:24.415Z,91.50
2019-01-14T14:57:28.955Z,91.60
2019-01-14T14:59:32.624Z,91.20
2019-01-14T15:01:36.287Z,91.10
2019-01-14T15:03:40.003Z,92.70
2019-01-14T15:05:43.651Z,93.60
2019-01-14T15:07:47.327Z,92.80
2019-01-14T15:09:55.774Z,92.60
2019-01-14T15:11:56.470Z,92.70
2019-01-14T15:14:00.142Z,92.60
2019-01-14T15:16:03.803Z,93.20
2019-01-14T15:18:07.501Z,92.80
2019-01-14T15:20:14.063Z,92.40
2019-01-14T15:22:17.723Z,92.40
2019-01-14T15:24:21.426Z,92.90
2019-01-14T15:26:25.079Z,92.10
2019-01-14T15:28:28.759Z,91.90
2019-01-14T15:30:32.521Z,91.60
2019-01-14T15:32:36.177Z,92.30
2019-01-14T15:34:40.824Z,92.00
2019-01-14T15:36:44.532Z,91.40
2019-01-14T15:38:48.233Z,91.60
2019-01-14T15:40:51.896Z,91.90
2019-01-14T15:42:55.595Z,92.10
2019-01-14T15:44:59.302Z,91.90
2019-01-14T15:47:02.979Z,91.40
2019-01-14T15:49:06.635Z,91.40
2019-01-14T15:51:10.292Z,91.70
2019-01-14T15:53:13.954Z,92.20
2019-01-14T15:55:19.941Z,91.70
2019-01-14T15:57:23.599Z,91.10
2019-01-14T15:59:27.251Z,91.80
2019-01-14T16:01:30.930Z,91.30
2019-01-14T16:03:34.599Z,92.00
2019-01-14T16:05:38.269Z,91.70
2019-01-14T16:07:41.919Z,91.50
2019-01-14T16:09:45.619Z,91.50
2019-01-14T16:11:50.474Z,91.70
2019-01-14T16:13:54.156Z,91.40
2019-01-14T16:15:57.834Z,91.30
2019-01-14T16:18:01.491Z,91.30
2019-01-14T16:20:08.089Z,90.50
2019-01-14T16:22:11.771Z,91.30
2019-01-14T16:24:15.435Z,91.50
2019-01-14T16:26:19.120Z,91.80
2019-01-14T16:28:22.806Z,91.20
2019-01-14T16:30:26.450Z,91.80
2019-01-14T16:32:31.324Z,91.10
2019-01-14T16:34:34.994Z,90.70
2019-01-14T16:36:38.820Z,90.30
2019-01-14T16:38:42.511Z,90.60
2019-01-14T16:40:46.187Z,90.80
2019-01-14T16:42:49.876Z,90.70
2019-01-14T16:44:53.559Z,91.40
2019-01-14T16:46:57.222Z,91.00
2019-01-14T16:49:01.012Z,91.10
2019-01-14T16:51:04.702Z,91.00
2019-01-14T16:53:09.412Z,90.50
2019-01-14T16:55:14.897Z,90.00
2019-01-14T16:57:18.571Z,89.80
2019-01-14T16:59:22.232Z,91.00
2019-01-14T17:01:25.909Z,90.80
2019-01-14T17:03:29.566Z,90.60
2019-01-14T17:05:33.224Z,90.00
2019-01-14T17:07:36.919Z,91.10
2019-01-14T17:09:41.170Z,90.70
2019-01-14T17:11:44.942Z,90.70
2019-01-14T17:13:48.626Z,90.90
2019-01-14T17:15:52.294Z,91.10
2019-01-14T17:17:56.042Z,91.40
2019-01-14T17:19:59.726Z,90.60
2019-01-14T17:22:03.418Z,91.10
2019-01-14T17:24:07.102Z,90.80
2019-01-14T17:26:10.755Z,90.80
2019-01-14T17:28:14.464Z,90.10
2019-01-14T17:30:18.137Z,89.90
2019-01-14T17:32:21.873Z,90.30
2019-01-14T17:34:25.592Z,90.20
2019-01-14T17:36:29.246Z,89.40
2019-01-14T17:38:32.918Z,88.90
2019-01-14T17:40:36.606Z,90.40
2019-01-14T17:42:40.254Z,90.20
2019-01-14T17:44:43.956Z,90.10
2019-01-14T17:46:47.599Z,90.50
2019-01-14T17:48:51.249Z,90.90
2019-01-14T17:50:55.023Z,91.10
2019-01-14T17:52:58.803Z,90.30
2019-01-14T17:55:02.497Z,90.20
2019-01-14T17:57:06.194Z,90.10
2019-01-14T17:59:10.160Z,88.70
2019-01-14T18:01:13.979Z,88.30
2019-01-14T18:03:17.658Z,88.90
2019-01-14T18:05:21.332Z,88.90
2019-01-14T18:07:24.983Z,89.40
2019-01-14T18:09:28.657Z,90.30
2019-01-14T18:11:32.358Z,91.10
2019-01-14T18:13:36.022Z,90.90
2019-01-14T18:15:39.811Z,90.90
2019-01-14T18:17:44.265Z,91.30
2019-01-14T18:19:48.032Z,91.30
2019-01-14T18:21:52.039Z,91.90
2019-01-14T18:23:55.747Z,91.70
2019-01-14T18:25:59.421Z,91.50
2019-01-14T18:28:03.093Z,91.20
2019-01-14T18:30:12.234Z,91.90
2019-01-14T18:32:15.978Z,92.30
2019-01-14T18:34:19.632Z,91.90
2019-01-14T18:36:23.326Z,91.20
2019-01-14T18:38:26.988Z,90.40
2019-01-14T18:40:33.905Z,90.50
2019-01-14T18:42:36.090Z,90.80
2019-01-14T18:44:39.791Z,90.60
2019-01-14T18:46:43.481Z,90.70
2019-01-14T18:48:47.130Z,91.80
2019-01-14T18:50:50.794Z,92.50
2019-01-14T18:52:54.463Z,92.10
2019-01-14T18:54:58.123Z,91.30
2019-01-14T18:57:01.777Z,91.00
2019-01-14T18:59:05.531Z,90.80
2019-01-14T19:01:09.194Z,91.30
2019-01-14T19:03:12.879Z,91.30
2019-01-14T19:05:16.548Z,90.80
2019-01-14T19:07:20.308Z,90.70
2019-01-14T19:09:24.021Z,90.30
2019-01-14T19:11:27.674Z,89.40
2019-01-14T19:13:31.367Z,90.30
2019-01-14T19:15:35.024Z,90.10
2019-01-14T19:17:38.739Z,89.20
2019-01-14T19:19:42.389Z,90.60
2019-01-14T19:21:46.067Z,90.50
2019-01-14T19:23:49.750Z,88.90
2019-01-14T19:25:53.429Z,89.20
2019-01-14T19:27:57.113Z,90.30
2019-01-14T19:30:00.777Z,89.30
2019-01-14T19:32:05.650Z,87.30
2019-01-14T19:34:09.473Z,86.30
2019-01-14T19:36:13.142Z,86.50
2019-01-14T19:38:16.807Z,87.30
2019-01-14T19:40:20.586Z,87.10
2019-01-14T19:42:24.239Z,87.60
2019-01-14T19:44:28.046Z,88.50
2019-01-14T19:46:31.758Z,89.50
2019-01-14T19:48:35.481Z,90.40
2019-01-14T19:50:39.117Z,88.90
2019-01-14T19:52:42.770Z,87.60
2019-01-14T19:54:46.462Z,85.20
2019-01-14T19:56:50.133Z,85.30
2019-01-14T19:58:53.835Z,85.60
2019-01-14T20:00:57.606Z,87.60
2019-01-14T20:03:01.370Z,87.30
2019-01-14T20:05:06.975Z,87.00
2019-01-14T20:07:12.327Z,88.20
2019-01-14T20:09:16.146Z,88.30
2019-01-14T20:11:19.878Z,90.00
2019-01-14T20:13:23.550Z,88.60
2019-01-14T20:15:27.271Z,86.10
2019-01-14T20:17:30.916Z,86.20
2019-01-14T20:19:34.574Z,86.10
2019-01-14T20:21:38.274Z,86.70
2019-01-14T20:23:41.943Z,87.70
2019-01-14T20:25:45.648Z,88.30
2019-01-14T20:27:49.325Z,89.20
2019-01-14T20:29:53.105Z,88.20
2019-01-14T20:31:56.866Z,88.80
2019-01-14T20:34:00.527Z,87.70
2019-01-14T20:36:04.210Z,86.90
2019-01-14T20:38:07.891Z,87.00
2019-01-14T20:40:14.142Z,85.30
2019-01-14T20:42:17.944Z,86.00
2019-01-14T20:44:21.603Z,87.70
2019-01-14T20:46:25.286Z,86.70
2019-01-14T20:48:28.969Z,86.40
2019-01-14T20:50:32.635Z,85.70
2019-01-14T20:52:36.312Z,87.40
2019-01-14T20:54:39.979Z,84.40
2019-01-14T20:56:43.674Z,86.40
2019-01-14T20:58:47.319Z,85.30
2019-01-14T21:00:50.974Z,84.80
2019-01-14T21:02:54.652Z,86.00
2019-01-14T21:04:58.310Z,86.20
2019-01-14T21:07:02.097Z,87.20
2019-01-14T21:09:06.955Z,85.30
2019-01-14T21:11:10.622Z,85.70
2019-01-14T21:13:14.291Z,85.90
2019-01-14T21:15:17.960Z,86.40
2019-01-14T21:17:21.758Z,85.10
2019-01-14T21:19:25.512Z,85.90
2019-01-14T21:21:29.244Z,85.50
2019-01-14T21:23:32.967Z,85.60
2019-01-14T21:25:36.611Z,84.50
2019-01-14T21:27:40.259Z,84.50
2019-01-14T21:29:43.954Z,83.60
2019-01-14T21:31:47.697Z,83.30
2019-01-14T21:33:51.488Z,83.90
2019-01-14T21:35:55.171Z,83.20
2019-01-14T21:37:58.882Z,86.30
2019-01-14T21:40:02.546Z,85.70
2019-01-14T21:42:06.182Z,83.50
2019-01-14T21:44:09.874Z,83.40
2019-01-14T21:46:13.531Z,85.30
2019-01-14T21:48:17.578Z,86.40
2019-01-14T21:50:21.597Z,85.90
2019-01-14T21:52:25.266Z,86.40
2019-01-14T21:54:28.950Z,88.60
2019-01-14T21:56:32.999Z,86.60
2019-01-14T21:58:36.750Z,84.30
2019-01-14T22:00:40.414Z,84.40
2019-01-14T22:02:44.078Z,84.00
2019-01-14T22:04:47.754Z,84.20
2019-01-14T22:06:51.422Z,84.30
2019-01-14T22:08:55.093Z,85.00
2019-01-14T22:10:58.783Z,85.00
2019-01-14T22:13:02.431Z,83.60
2019-01-14T22:15:08.317Z,85.30
2019-01-14T22:17:11.995Z,87.50
2019-01-14T22:19:15.675Z,86.70
2019-01-14T22:21:19.367Z,88.60
2019-01-14T22:23:23.034Z,87.40
2019-01-14T22:25:26.713Z,87.20
2019-01-14T22:27:30.366Z,85.60
2019-01-14T22:29:34.027Z,86.00
2019-01-14T22:31:37.723Z,87.20
2019-01-14T22:33:41.373Z,85.50
2019-01-14T22:35:45.049Z,85.60
2019-01-14T22:37:48.713Z,84.90
2019-01-14T22:39:52.395Z,84.40
2019-01-14T22:41:56.057Z,85.40
2019-01-14T22:43:59.707Z,85.90
2019-01-14T22:46:03.389Z,84.30
2019-01-14T22:48:07.042Z,82.20
2019-01-14T22:50:13.211Z,82.10
2019-01-14T22:52:16.889Z,86.30
2019-01-14T22:54:20.535Z,86.90
2019-01-14T22:56:24.355Z,86.90
2019-01-14T22:58:28.019Z,87.80
2019-01-14T23:01:03.573Z,87.50
2019-01-14T23:03:07.290Z,87.70
2019-01-14T23:05:10.934Z,86.90
2019-01-14T23:07:14.587Z,86.10
2019-01-14T23:09:18.274Z,85.20
2019-01-14T23:11:21.935Z,84.90
2019-01-14T23:13:25.611Z,84.70
2019-01-14T23:15:29.271Z,83.80
2019-01-14T23:17:33.046Z,86.20
2019-01-14T23:19:36.718Z,88.20
2019-01-14T23:21:40.370Z,86.80
2019-01-14T23:23:44.058Z,86.90
2019-01-14T23:25:47.817Z,85.50
2019-01-14T23:27:51.469Z,84.70
2019-01-14T23:29:55.146Z,85.30
2019-01-14T23:31:58.804Z,88.30
2019-01-14T23:34:02.490Z,87.80
2019-01-14T23:36:06.339Z,86.40
2019-01-14T23:38:10.002Z,85.70
2019-01-14T23:40:13.675Z,85.00
2019-01-14T23:42:17.343Z,84.50
2019-01-14T23:44:21.022Z,86.50
2019-01-14T23:46:24.713Z,87.60
2019-01-14T23:48:28.358Z,87.00
2019-01-14T23:50:32.046Z,86.40
2019-01-14T23:52:35.703Z,85.80
2019-01-14T23:54:39.402Z,84.70
2019-01-14T23:56:43.084Z,83.10
2019-01-14T23:58:46.755Z,84.10
